createdAt,value
2022-12-29T00:01:22.322Z,1.60
2022-12-29T00:06:25.111Z,1.56
2022-12-29T00:11:28.655Z,1.56
2022-12-29T00:16:32.158Z,1.54
2022-12-29T00:21:52.880Z,1.50
2022-12-29T00:27:22.520Z,1.56
2022-12-29T00:32:43.211Z,1.49
2022-12-29T00:38:07.475Z,1.63
2022-12-29T00:43:28.272Z,1.59
2022-12-29T00:48:48.884Z,1.60
2022-12-29T00:53:50.926Z,1.51
2022-12-29T00:58:53.005Z,1.49
2022-12-29T01:03:58.640Z,1.45
2022-12-29T01:09:23.861Z,1.41
2022-12-29T01:14:26.372Z,1.37
2022-12-29T01:19:28.575Z,1.31
2022-12-29T01:24:32.004Z,1.27
2022-12-29T01:29:34.106Z,1.24
2022-12-29T01:34:36.145Z,1.20
2022-12-29T01:39:39.318Z,1.15
2022-12-29T01:44:50.007Z,1.27
2022-12-29T01:49:56.946Z,1.27
2022-12-29T01:55:00.032Z,1.07
2022-12-29T02:00:08.317Z,1.18
2022-12-29T02:05:30.378Z,1.19
2022-12-29T02:10:35.434Z,1.03
2022-12-29T02:15:37.609Z,0.95
2022-12-29T02:21:11.368Z,0.84
2022-12-29T02:26:13.493Z,0.50
2022-12-29T02:31:32.898Z,0.42
2022-12-29T02:37:09.364Z,0.36
2022-12-29T02:42:36.949Z,0.43
2022-12-29T02:47:52.419Z,0.40
2022-12-29T02:53:00.697Z,0.51
2022-12-29T02:58:24.097Z,0.49
2022-12-29T03:03:41.267Z,0.38
2022-12-29T03:09:01.505Z,0.42
2022-12-29T03:14:34.369Z,0.28
2022-12-29T03:19:41.208Z,0.25
2022-12-29T03:24:50.522Z,0.24
2022-12-29T03:29:58.653Z,0.34
2022-12-29T03:35:02.504Z,0.31
2022-12-29T03:40:06.856Z,0.16
2022-12-29T03:45:10.225Z,0.20
2022-12-29T03:50:14.197Z,0.09
2022-12-29T03:55:18.171Z,0.06
2022-12-29T04:00:21.878Z,-0.09
2022-12-29T04:05:25.998Z,0.03
2022-12-29T04:10:30.157Z,0.02
2022-12-29T04:15:35.815Z,-0.04
2022-12-29T04:21:16.237Z,0.02
2022-12-29T04:26:20.609Z,-0.10
2022-12-29T04:31:35.183Z,-0.11
2022-12-29T04:36:37.676Z,-0.06
2022-12-29T04:41:40.425Z,0.04
2022-12-29T04:46:45.382Z,0.05
2022-12-29T04:51:58.259Z,0.04
2022-12-29T04:57:00.436Z,0.05
2022-12-29T05:02:02.833Z,0.12
2022-12-29T05:07:05.924Z,0.06
2022-12-29T05:12:08.078Z,0.08
2022-12-29T05:17:14.349Z,0.14
2022-12-29T05:22:16.719Z,0.16
2022-12-29T05:27:21.331Z,0.21
2022-12-29T05:32:49.927Z,0.01
2022-12-29T05:37:52.994Z,0.13
2022-12-29T05:42:55.323Z,0.07
2022-12-29T05:48:31.679Z,0.06
2022-12-29T05:53:46.336Z,-0.10
2022-12-29T05:58:48.463Z,-0.07
2022-12-29T06:03:51.234Z,-0.06
2022-12-29T06:08:55.810Z,-0.04
2022-12-29T06:13:57.882Z,-0.08
2022-12-29T06:19:00.405Z,-0.12
2022-12-29T06:24:02.627Z,-0.18
2022-12-29T06:29:04.781Z,-0.21
2022-12-29T06:34:08.832Z,-0.24
2022-12-29T06:39:12.287Z,-0.19
2022-12-29T06:44:14.501Z,-0.21
2022-12-29T06:49:26.775Z,-0.14
2022-12-29T06:54:28.824Z,-0.11
2022-12-29T06:59:30.984Z,-0.14
2022-12-29T07:04:33.277Z,-0.10
2022-12-29T07:09:35.601Z,-0.10
2022-12-29T07:14:42.859Z,-0.03
2022-12-29T07:19:46.211Z,-0.20
2022-12-29T07:24:48.326Z,-0.28
2022-12-29T07:29:50.441Z,-0.23
2022-12-29T07:34:52.621Z,-0.18
2022-12-29T07:39:54.756Z,-0.08
2022-12-29T07:44:56.898Z,-0.04
2022-12-29T07:50:06.945Z,0.10
2022-12-29T07:55:09.917Z,0.21
2022-12-29T08:00:12.499Z,0.34
2022-12-29T08:05:16.459Z,0.45
2022-12-29T08:10:19.068Z,0.38
2022-12-29T08:15:21.844Z,0.29
2022-12-29T08:20:26.547Z,0.21
2022-12-29T08:25:28.589Z,0.10
2022-12-29T08:30:30.712Z,0.12
2022-12-29T08:35:32.874Z,0.11
2022-12-29T08:40:35.668Z,0.13
2022-12-29T08:45:37.775Z,0.23
2022-12-29T08:50:40.058Z,-0.04
2022-12-29T08:55:42.212Z,-0.24
2022-12-29T09:00:44.972Z,-0.35
2022-12-29T09:05:54.712Z,-0.29
2022-12-29T09:10:56.776Z,-0.07
2022-12-29T09:16:00.432Z,0.06
2022-12-29T09:21:05.325Z,0.00
2022-12-29T09:26:08.710Z,0.11
2022-12-29T09:31:11.341Z,0.16
2022-12-29T09:36:13.699Z,0.01
2022-12-29T09:41:42.472Z,-0.03
2022-12-29T09:46:52.432Z,0.05
2022-12-29T09:51:58.461Z,0.12
2022-12-29T09:57:00.576Z,0.12
2022-12-29T10:02:18.359Z,0.26
2022-12-29T10:08:17.403Z,0.31
2022-12-29T10:13:37.486Z,0.26
2022-12-29T10:19:04.519Z,-0.03
2022-12-29T10:24:12.331Z,-0.05
2022-12-29T10:29:41.994Z,-0.20
2022-12-29T10:34:49.998Z,-0.36
2022-12-29T10:39:57.483Z,-0.60
2022-12-29T10:45:00.727Z,-0.41
2022-12-29T10:50:03.733Z,-0.40
2022-12-29T10:55:18.467Z,-0.27
2022-12-29T11:00:22.774Z,-0.04
2022-12-29T11:05:31.928Z,0.21
2022-12-29T11:10:33.964Z,0.47
2022-12-29T11:15:49.546Z,0.70
2022-12-29T11:21:00.476Z,0.82
2022-12-29T11:26:16.240Z,0.98
2022-12-29T11:31:22.424Z,0.97
2022-12-29T11:36:25.904Z,0.99
2022-12-29T11:41:32.966Z,1.01
2022-12-29T11:46:39.331Z,0.98
2022-12-29T11:51:49.818Z,0.89
2022-12-29T11:56:53.005Z,0.98
2022-12-29T12:01:57.521Z,1.06
2022-12-29T12:07:09.792Z,1.20
2022-12-29T12:12:24.819Z,1.25
2022-12-29T12:17:48.565Z,1.28
2022-12-29T12:23:11.712Z,1.22
2022-12-29T12:28:43.344Z,1.06
2022-12-29T12:33:51.719Z,1.09
2022-12-29T12:39:13.212Z,1.16
2022-12-29T12:44:30.197Z,1.21
2022-12-29T12:49:41.553Z,1.07
2022-12-29T12:55:03.333Z,1.16
2022-12-29T13:00:13.351Z,1.30
2022-12-29T13:05:27.083Z,1.06
2022-12-29T13:10:54.243Z,1.12
2022-12-29T13:16:24.079Z,1.09
2022-12-29T13:21:38.668Z,1.06
2022-12-29T13:26:54.646Z,1.01
2022-12-29T13:32:17.355Z,0.93
2022-12-29T13:37:27.055Z,0.79
2022-12-29T13:42:29.768Z,0.57
2022-12-29T13:47:40.866Z,0.74
2022-12-29T13:53:01.636Z,0.78
2022-12-29T13:58:28.252Z,0.62
2022-12-29T14:03:56.248Z,0.53
2022-12-29T14:09:07.032Z,0.41
2022-12-29T14:14:20.038Z,0.26
2022-12-29T14:19:29.954Z,0.12
2022-12-29T14:24:35.784Z,0.16
2022-12-29T14:29:41.096Z,0.15
2022-12-29T14:34:50.339Z,-0.01
2022-12-29T14:40:20.710Z,0.09
2022-12-29T14:45:28.430Z,0.05
2022-12-29T14:50:36.281Z,0.16
2022-12-29T14:55:42.225Z,0.19
2022-12-29T15:00:46.037Z,0.33
2022-12-29T15:05:57.549Z,0.30
2022-12-29T15:11:06.324Z,0.46
2022-12-29T15:16:36.856Z,0.56
2022-12-29T15:21:43.472Z,0.42
2022-12-29T15:26:48.424Z,0.34
2022-12-29T15:31:50.540Z,0.31
2022-12-29T15:36:52.612Z,0.26
2022-12-29T15:42:01.001Z,0.26
2022-12-29T15:47:09.970Z,0.13
2022-12-29T15:52:17.925Z,0.05
2022-12-29T15:57:24.995Z,0.15
2022-12-29T16:02:28.114Z,0.15
2022-12-29T16:07:39.161Z,0.14
2022-12-29T16:12:43.581Z,0.08
2022-12-29T16:17:51.934Z,0.14
2022-12-29T16:22:58.895Z,0.16
2022-12-29T16:28:02.692Z,0.02
2022-12-29T16:33:06.431Z,0.22
2022-12-29T16:38:22.432Z,0.30
2022-12-29T16:43:30.730Z,0.30
2022-12-29T16:48:46.581Z,0.23
2022-12-29T16:53:54.734Z,0.26
2022-12-29T16:59:07.328Z,0.29
2022-12-29T17:04:12.996Z,0.17
2022-12-29T17:09:23.496Z,0.25
2022-12-29T17:14:45.531Z,0.24
2022-12-29T17:19:53.636Z,0.05
2022-12-29T17:25:00.595Z,0.01
2022-12-29T17:30:15.981Z,0.02
2022-12-29T17:35:20.115Z,0.02
2022-12-29T17:40:26.790Z,0.00
2022-12-29T17:45:33.304Z,0.05
2022-12-29T17:50:36.224Z,0.01
2022-12-29T17:55:38.936Z,0.10
2022-12-29T18:00:41.319Z,0.13
2022-12-29T18:05:43.510Z,0.18
2022-12-29T18:10:46.285Z,0.28
2022-12-29T18:15:48.802Z,0.30
2022-12-29T18:20:53.424Z,0.36
2022-12-29T18:26:03.664Z,0.41
2022-12-29T18:31:17.135Z,0.47
2022-12-29T18:36:19.851Z,0.22
2022-12-29T18:41:25.202Z,0.47
2022-12-29T18:46:27.638Z,0.41
2022-12-29T18:51:29.730Z,0.44
2022-12-29T18:56:31.798Z,0.48
2022-12-29T19:01:33.954Z,0.48
2022-12-29T19:06:36.119Z,0.43
2022-12-29T19:11:38.171Z,0.47
2022-12-29T19:16:40.324Z,0.47
2022-12-29T19:21:44.578Z,0.44
2022-12-29T19:26:46.639Z,0.42
2022-12-29T19:31:48.722Z,0.27
2022-12-29T19:36:50.792Z,0.44
2022-12-29T19:41:52.925Z,0.50
2022-12-29T19:46:55.012Z,0.56
2022-12-29T19:51:57.114Z,0.53
2022-12-29T19:56:59.436Z,0.45
2022-12-29T20:02:01.673Z,0.47
2022-12-29T20:07:04.049Z,0.45
2022-12-29T20:12:06.873Z,0.49
2022-12-29T20:17:12.141Z,0.58
2022-12-29T20:22:14.327Z,0.59
2022-12-29T20:27:16.438Z,0.52
2022-12-29T20:32:21.747Z,0.56
2022-12-29T20:37:23.830Z,0.51
2022-12-29T20:42:25.969Z,0.52
2022-12-29T20:47:28.131Z,0.58
2022-12-29T20:52:30.228Z,0.66
2022-12-29T20:57:49.932Z,0.68
2022-12-29T21:02:55.730Z,0.65
2022-12-29T21:07:59.827Z,0.65
2022-12-29T21:13:02.029Z,0.56
2022-12-29T21:18:04.104Z,0.55
2022-12-29T21:23:06.950Z,0.52
2022-12-29T21:28:13.737Z,0.58
2022-12-29T21:33:20.501Z,0.41
2022-12-29T21:38:22.625Z,0.18
2022-12-29T21:43:24.672Z,0.25
2022-12-29T21:48:28.888Z,0.25
2022-12-29T21:53:39.548Z,0.25
2022-12-29T21:59:02.662Z,0.27
2022-12-29T22:04:23.666Z,0.19
2022-12-29T22:09:44.235Z,0.23
2022-12-29T22:14:46.268Z,0.22
2022-12-29T22:19:48.352Z,0.25
2022-12-29T22:24:50.365Z,0.27
2022-12-29T22:29:52.433Z,0.28
2022-12-29T22:34:54.582Z,0.32
2022-12-29T22:39:56.684Z,0.38
2022-12-29T22:44:58.885Z,0.36
2022-12-29T22:50:00.946Z,0.40
2022-12-29T22:55:06.732Z,0.44
2022-12-29T23:00:09.934Z,0.46
2022-12-29T23:05:12.042Z,0.39
2022-12-29T23:10:14.170Z,0.46
2022-12-29T23:15:16.198Z,0.48
2022-12-29T23:20:18.309Z,0.49
2022-12-29T23:25:20.355Z,0.55
2022-12-29T23:30:22.410Z,0.58
2022-12-29T23:35:24.545Z,0.54
2022-12-29T23:40:26.625Z,0.54
2022-12-29T23:45:28.720Z,0.55
2022-12-29T23:50:30.854Z,0.53
2022-12-29T23:55:33.086Z,0.45
